sensor_id;sensor_type;location;lat;lon;timestamp;P1;durP1;ratioP1;P2;durP2;ratioP2
24373;SDS011;12498;50.880;12.096;2023-05-14T00:01:07;7.70;;;6.00;;
24373;SDS011;12498;50.880;12.096;2023-05-14T00:03:33;6.70;;;5.53;;
24373;SDS011;12498;50.880;12.096;2023-05-14T00:06:01;8.50;;;6.32;;
24373;SDS011;12498;50.880;12.096;2023-05-14T00:08:27;10.13;;;5.82;;
24373;SDS011;12498;50.880;12.096;2023-05-14T00:10:53;7.15;;;5.90;;
24373;SDS011;12498;50.880;12.096;2023-05-14T00:13:19;8.13;;;5.85;;
24373;SDS011;12498;50.880;12.096;2023-05-14T00:15:45;7.45;;;5.78;;
24373;SDS011;12498;50.880;12.096;2023-05-14T00:18:11;9.13;;;6.05;;
24373;SDS011;12498;50.880;12.096;2023-05-14T00:20:37;10.35;;;5.80;;
24373;SDS011;12498;50.880;12.096;2023-05-14T00:23:03;8.70;;;6.10;;
24373;SDS011;12498;50.880;12.096;2023-05-14T00:25:29;10.10;;;6.18;;
24373;SDS011;12498;50.880;12.096;2023-05-14T00:27:55;9.82;;;6.47;;
24373;SDS011;12498;50.880;12.096;2023-05-14T00:30:21;9.57;;;7.18;;
24373;SDS011;12498;50.880;12.096;2023-05-14T00:32:47;11.85;;;6.43;;
24373;SDS011;12498;50.880;12.096;2023-05-14T00:35:13;10.32;;;6.85;;
24373;SDS011;12498;50.880;12.096;2023-05-14T00:37:39;8.95;;;6.75;;
24373;SDS011;12498;50.880;12.096;2023-05-14T00:40:05;11.30;;;6.80;;
24373;SDS011;12498;50.880;12.096;2023-05-14T00:42:32;7.80;;;6.72;;
24373;SDS011;12498;50.880;12.096;2023-05-14T00:44:58;11.35;;;8.00;;
24373;SDS011;12498;50.880;12.096;2023-05-14T00:47:24;13.70;;;7.15;;
24373;SDS011;12498;50.880;12.096;2023-05-14T00:49:50;11.40;;;7.85;;
24373;SDS011;12498;50.880;12.096;2023-05-14T00:52:16;13.43;;;7.93;;
24373;SDS011;12498;50.880;12.096;2023-05-14T00:54:43;13.70;;;8.70;;
24373;SDS011;12498;50.880;12.096;2023-05-14T00:57:10;11.02;;;8.20;;
24373;SDS011;12498;50.880;12.096;2023-05-14T00:59:36;12.40;;;8.30;;
24373;SDS011;12498;50.880;12.096;2023-05-14T01:02:05;11.60;;;8.20;;
24373;SDS011;12498;50.880;12.096;2023-05-14T01:04:31;13.40;;;8.50;;
24373;SDS011;12498;50.880;12.096;2023-05-14T01:09:57;11.00;;;8.27;;
24373;SDS011;12498;50.880;12.096;2023-05-14T01:15:10;10.95;;;8.88;;
24373;SDS011;12498;50.880;12.096;2023-05-14T01:18:19;11.20;;;9.05;;
24373;SDS011;12498;50.880;12.096;2023-05-14T01:20:25;14.68;;;8.95;;
24373;SDS011;12498;50.880;12.096;2023-05-14T01:22:51;11.35;;;8.82;;
24373;SDS011;12498;50.880;12.096;2023-05-14T01:25:17;12.98;;;9.10;;
24373;SDS011;12498;50.880;12.096;2023-05-14T01:28:30;16.38;;;9.32;;
24373;SDS011;12498;50.880;12.096;2023-05-14T01:30:37;13.07;;;9.05;;
24373;SDS011;12498;50.880;12.096;2023-05-14T01:33:05;9.95;;;7.80;;
24373;SDS011;12498;50.880;12.096;2023-05-14T01:35:32;11.93;;;8.65;;
24373;SDS011;12498;50.880;12.096;2023-05-14T01:37:59;12.45;;;9.23;;
24373;SDS011;12498;50.880;12.096;2023-05-14T01:40:26;11.20;;;8.73;;
24373;SDS011;12498;50.880;12.096;2023-05-14T01:42:52;14.05;;;8.15;;
24373;SDS011;12498;50.880;12.096;2023-05-14T01:45:19;11.18;;;9.07;;
24373;SDS011;12498;50.880;12.096;2023-05-14T01:47:45;10.65;;;8.68;;
24373;SDS011;12498;50.880;12.096;2023-05-14T01:50:11;12.73;;;8.68;;
24373;SDS011;12498;50.880;12.096;2023-05-14T01:52:37;15.38;;;8.98;;
24373;SDS011;12498;50.880;12.096;2023-05-14T01:55:04;13.55;;;8.90;;
24373;SDS011;12498;50.880;12.096;2023-05-14T01:57:30;11.52;;;8.68;;
24373;SDS011;12498;50.880;12.096;2023-05-14T01:59:56;16.17;;;9.60;;
24373;SDS011;12498;50.880;12.096;2023-05-14T02:02:22;12.30;;;8.85;;
24373;SDS011;12498;50.880;12.096;2023-05-14T02:04:48;13.35;;;9.35;;
24373;SDS011;12498;50.880;12.096;2023-05-14T02:07:14;16.42;;;9.05;;
24373;SDS011;12498;50.880;12.096;2023-05-14T02:09:40;12.15;;;8.88;;
24373;SDS011;12498;50.880;12.096;2023-05-14T02:12:07;11.90;;;8.98;;
24373;SDS011;12498;50.880;12.096;2023-05-14T02:14:33;14.52;;;8.93;;
24373;SDS011;12498;50.880;12.096;2023-05-14T02:16:59;14.80;;;9.52;;
24373;SDS011;12498;50.880;12.096;2023-05-14T02:19:25;11.55;;;8.35;;
24373;SDS011;12498;50.880;12.096;2023-05-14T02:21:51;13.18;;;9.27;;
24373;SDS011;12498;50.880;12.096;2023-05-14T02:24:17;11.75;;;9.15;;
24373;SDS011;12498;50.880;12.096;2023-05-14T02:26:43;10.35;;;8.30;;
24373;SDS011;12498;50.880;12.096;2023-05-14T02:29:09;10.50;;;8.73;;
24373;SDS011;12498;50.880;12.096;2023-05-14T02:31:35;12.55;;;8.52;;
24373;SDS011;12498;50.880;12.096;2023-05-14T02:34:01;11.38;;;8.63;;
24373;SDS011;12498;50.880;12.096;2023-05-14T02:36:27;9.57;;;8.02;;
24373;SDS011;12498;50.880;12.096;2023-05-14T02:38:54;15.05;;;10.00;;
24373;SDS011;12498;50.880;12.096;2023-05-14T02:41:20;12.63;;;8.68;;
24373;SDS011;12498;50.880;12.096;2023-05-14T02:43:45;13.73;;;9.07;;
24373;SDS011;12498;50.880;12.096;2023-05-14T02:46:11;14.68;;;9.50;;
24373;SDS011;12498;50.880;12.096;2023-05-14T02:48:37;13.73;;;10.25;;
24373;SDS011;12498;50.880;12.096;2023-05-14T02:51:03;12.52;;;9.23;;
24373;SDS011;12498;50.880;12.096;2023-05-14T02:53:29;15.70;;;9.15;;
24373;SDS011;12498;50.880;12.096;2023-05-14T02:55:55;14.30;;;10.20;;
24373;SDS011;12498;50.880;12.096;2023-05-14T02:58:21;15.40;;;9.75;;
24373;SDS011;12498;50.880;12.096;2023-05-14T03:00:47;12.30;;;10.10;;
24373;SDS011;12498;50.880;12.096;2023-05-14T03:03:13;15.50;;;10.20;;
24373;SDS011;12498;50.880;12.096;2023-05-14T03:05:39;13.20;;;10.23;;
24373;SDS011;12498;50.880;12.096;2023-05-14T03:08:05;12.43;;;9.93;;
24373;SDS011;12498;50.880;12.096;2023-05-14T03:10:31;13.00;;;10.07;;
24373;SDS011;12498;50.880;12.096;2023-05-14T03:13:01;14.05;;;10.23;;
24373;SDS011;12498;50.880;12.096;2023-05-14T03:15:27;14.90;;;10.25;;
24373;SDS011;12498;50.880;12.096;2023-05-14T03:17:53;15.23;;;10.38;;
24373;SDS011;12498;50.880;12.096;2023-05-14T03:20:19;13.25;;;10.65;;
24373;SDS011;12498;50.880;12.096;2023-05-14T03:22:45;13.00;;;10.10;;
24373;SDS011;12498;50.880;12.096;2023-05-14T03:25:11;15.98;;;10.35;;
24373;SDS011;12498;50.880;12.096;2023-05-14T03:27:37;15.82;;;10.15;;
24373;SDS011;12498;50.880;12.096;2023-05-14T03:30:03;13.10;;;10.98;;
24373;SDS011;12498;50.880;12.096;2023-05-14T03:32:29;15.90;;;12.63;;
24373;SDS011;12498;50.880;12.096;2023-05-14T03:34:55;16.00;;;11.98;;
24373;SDS011;12498;50.880;12.096;2023-05-14T03:37:21;14.98;;;12.15;;
24373;SDS011;12498;50.880;12.096;2023-05-14T03:39:47;15.20;;;11.60;;
24373;SDS011;12498;50.880;12.096;2023-05-14T03:42:13;17.73;;;12.18;;
24373;SDS011;12498;50.880;12.096;2023-05-14T03:44:39;18.92;;;12.38;;
24373;SDS011;12498;50.880;12.096;2023-05-14T03:47:05;15.25;;;11.07;;
24373;SDS011;12498;50.880;12.096;2023-05-14T03:49:32;16.73;;;11.25;;
24373;SDS011;12498;50.880;12.096;2023-05-14T03:51:58;13.98;;;11.18;;
24373;SDS011;12498;50.880;12.096;2023-05-14T03:54:24;15.88;;;12.50;;
24373;SDS011;12498;50.880;12.096;2023-05-14T03:56:50;16.75;;;13.10;;
24373;SDS011;12498;50.880;12.096;2023-05-14T03:59:16;17.58;;;13.05;;
24373;SDS011;12498;50.880;12.096;2023-05-14T04:01:42;19.75;;;14.07;;
24373;SDS011;12498;50.880;12.096;2023-05-14T04:04:08;18.85;;;14.15;;
24373;SDS011;12498;50.880;12.096;2023-05-14T04:06:35;19.92;;;13.13;;
24373;SDS011;12498;50.880;12.096;2023-05-14T04:09:01;15.88;;;12.88;;
24373;SDS011;12498;50.880;12.096;2023-05-14T04:11:27;16.35;;;13.50;;
24373;SDS011;12498;50.880;12.096;2023-05-14T04:13:53;17.90;;;12.88;;
24373;SDS011;12498;50.880;12.096;2023-05-14T04:16:20;21.45;;;15.52;;
24373;SDS011;12498;50.880;12.096;2023-05-14T04:18:46;19.38;;;15.05;;
24373;SDS011;12498;50.880;12.096;2023-05-14T04:21:12;21.00;;;16.45;;
24373;SDS011;12498;50.880;12.096;2023-05-14T04:23:38;17.33;;;14.27;;
24373;SDS011;12498;50.880;12.096;2023-05-14T04:26:04;19.52;;;13.15;;
24373;SDS011;12498;50.880;12.096;2023-05-14T04:28:30;16.42;;;12.77;;
24373;SDS011;12498;50.880;12.096;2023-05-14T04:30:56;16.92;;;13.05;;
24373;SDS011;12498;50.880;12.096;2023-05-14T04:33:22;15.80;;;12.55;;
24373;SDS011;12498;50.880;12.096;2023-05-14T04:35:48;15.40;;;12.80;;
24373;SDS011;12498;50.880;12.096;2023-05-14T04:38:14;15.00;;;12.18;;
24373;SDS011;12498;50.880;12.096;2023-05-14T04:40:40;18.23;;;12.80;;
24373;SDS011;12498;50.880;12.096;2023-05-14T04:43:06;21.48;;;15.18;;
24373;SDS011;12498;50.880;12.096;2023-05-14T04:45:32;17.90;;;14.07;;
24373;SDS011;12498;50.880;12.096;2023-05-14T04:47:58;17.75;;;14.05;;
24373;SDS011;12498;50.880;12.096;2023-05-14T04:50:27;18.23;;;13.13;;
24373;SDS011;12498;50.880;12.096;2023-05-14T04:52:53;20.92;;;15.20;;
24373;SDS011;12498;50.880;12.096;2023-05-14T04:55:20;17.15;;;13.10;;
24373;SDS011;12498;50.880;12.096;2023-05-14T04:57:45;16.20;;;12.90;;
24373;SDS011;12498;50.880;12.096;2023-05-14T05:00:12;17.70;;;13.57;;
24373;SDS011;12498;50.880;12.096;2023-05-14T05:02:38;17.05;;;13.32;;
24373;SDS011;12498;50.880;12.096;2023-05-14T05:05:04;16.17;;;12.23;;
24373;SDS011;12498;50.880;12.096;2023-05-14T05:07:30;18.67;;;14.32;;
24373;SDS011;12498;50.880;12.096;2023-05-14T05:09:56;22.33;;;15.63;;
24373;SDS011;12498;50.880;12.096;2023-05-14T05:12:22;18.48;;;12.93;;
24373;SDS011;12498;50.880;12.096;2023-05-14T05:14:48;16.65;;;12.20;;
24373;SDS011;12498;50.880;12.096;2023-05-14T05:17:14;15.15;;;11.63;;
24373;SDS011;12498;50.880;12.096;2023-05-14T05:19:40;14.45;;;11.98;;
24373;SDS011;12498;50.880;12.096;2023-05-14T05:22:06;15.18;;;11.98;;
24373;SDS011;12498;50.880;12.096;2023-05-14T05:24:32;18.10;;;11.90;;
24373;SDS011;12498;50.880;12.096;2023-05-14T05:26:58;16.42;;;11.52;;
24373;SDS011;12498;50.880;12.096;2023-05-14T05:29:24;13.93;;;10.95;;
24373;SDS011;12498;50.880;12.096;2023-05-14T05:31:50;15.25;;;10.60;;
24373;SDS011;12498;50.880;12.096;2023-05-14T05:34:16;13.63;;;11.30;;
24373;SDS011;12498;50.880;12.096;2023-05-14T05:36:43;16.70;;;10.80;;
24373;SDS011;12498;50.880;12.096;2023-05-14T05:39:09;15.93;;;11.57;;
24373;SDS011;12498;50.880;12.096;2023-05-14T05:41:35;14.93;;;10.88;;
24373;SDS011;12498;50.880;12.096;2023-05-14T05:44:01;14.15;;;10.88;;
24373;SDS011;12498;50.880;12.096;2023-05-14T05:46:27;15.05;;;10.52;;
24373;SDS011;12498;50.880;12.096;2023-05-14T05:48:53;13.73;;;10.50;;
24373;SDS011;12498;50.880;12.096;2023-05-14T05:51:19;13.68;;;11.55;;
24373;SDS011;12498;50.880;12.096;2023-05-14T05:53:45;15.43;;;10.88;;
24373;SDS011;12498;50.880;12.096;2023-05-14T05:56:11;16.27;;;10.90;;
24373;SDS011;12498;50.880;12.096;2023-05-14T05:58:37;16.42;;;13.40;;
24373;SDS011;12498;50.880;12.096;2023-05-14T06:01:03;15.65;;;12.32;;
24373;SDS011;12498;50.880;12.096;2023-05-14T06:03:30;12.18;;;10.45;;
24373;SDS011;12498;50.880;12.096;2023-05-14T06:05:56;16.50;;;11.27;;
24373;SDS011;12498;50.880;12.096;2023-05-14T06:08:22;12.48;;;10.10;;
24373;SDS011;12498;50.880;12.096;2023-05-14T06:10:48;12.43;;;10.85;;
24373;SDS011;12498;50.880;12.096;2023-05-14T06:13:14;12.57;;;10.02;;
24373;SDS011;12498;50.880;12.096;2023-05-14T06:15:40;14.63;;;9.63;;
24373;SDS011;12498;50.880;12.096;2023-05-14T06:18:06;16.45;;;10.15;;
24373;SDS011;12498;50.880;12.096;2023-05-14T06:20:32;13.38;;;10.18;;
24373;SDS011;12498;50.880;12.096;2023-05-14T06:22:58;18.30;;;10.45;;
24373;SDS011;12498;50.880;12.096;2023-05-14T06:25:24;15.82;;;10.65;;
24373;SDS011;12498;50.880;12.096;2023-05-14T06:27:50;12.48;;;10.13;;
24373;SDS011;12498;50.880;12.096;2023-05-14T06:30:16;12.77;;;10.73;;
24373;SDS011;12498;50.880;12.096;2023-05-14T06:32:42;12.27;;;9.57;;
24373;SDS011;12498;50.880;12.096;2023-05-14T06:35:08;10.10;;;9.00;;
24373;SDS011;12498;50.880;12.096;2023-05-14T06:37:35;13.95;;;10.05;;
24373;SDS011;12498;50.880;12.096;2023-05-14T06:40:01;17.48;;;10.20;;
24373;SDS011;12498;50.880;12.096;2023-05-14T06:42:27;13.45;;;9.95;;
24373;SDS011;12498;50.880;12.096;2023-05-14T06:44:53;13.05;;;9.95;;
24373;SDS011;12498;50.880;12.096;2023-05-14T06:47:20;13.15;;;9.05;;
24373;SDS011;12498;50.880;12.096;2023-05-14T06:49:46;13.77;;;9.55;;
24373;SDS011;12498;50.880;12.096;2023-05-14T06:52:11;12.45;;;9.57;;
24373;SDS011;12498;50.880;12.096;2023-05-14T06:54:37;13.23;;;9.38;;
24373;SDS011;12498;50.880;12.096;2023-05-14T06:57:04;13.32;;;10.48;;
24373;SDS011;12498;50.880;12.096;2023-05-14T06:59:30;12.57;;;9.23;;
24373;SDS011;12498;50.880;12.096;2023-05-14T07:01:56;16.65;;;11.98;;
24373;SDS011;12498;50.880;12.096;2023-05-14T07:04:22;15.32;;;10.43;;
24373;SDS011;12498;50.880;12.096;2023-05-14T07:06:48;12.93;;;9.70;;
24373;SDS011;12498;50.880;12.096;2023-05-14T07:09:17;12.98;;;8.90;;
24373;SDS011;12498;50.880;12.096;2023-05-14T07:11:43;12.18;;;9.02;;
24373;SDS011;12498;50.880;12.096;2023-05-14T07:14:09;13.82;;;9.57;;
24373;SDS011;12498;50.880;12.096;2023-05-14T07:16:35;13.68;;;9.93;;
24373;SDS011;12498;50.880;12.096;2023-05-14T07:19:01;13.43;;;8.68;;
24373;SDS011;12498;50.880;12.096;2023-05-14T07:21:27;13.10;;;9.50;;
24373;SDS011;12498;50.880;12.096;2023-05-14T07:23:53;13.63;;;9.05;;
24373;SDS011;12498;50.880;12.096;2023-05-14T07:26:19;9.55;;;8.38;;
24373;SDS011;12498;50.880;12.096;2023-05-14T07:28:48;10.43;;;8.70;;
24373;SDS011;12498;50.880;12.096;2023-05-14T07:31:14;12.45;;;8.60;;
24373;SDS011;12498;50.880;12.096;2023-05-14T07:33:40;11.07;;;8.23;;
24373;SDS011;12498;50.880;12.096;2023-05-14T07:36:06;11.68;;;8.45;;
24373;SDS011;12498;50.880;12.096;2023-05-14T07:38:32;11.43;;;8.45;;
24373;SDS011;12498;50.880;12.096;2023-05-14T07:40:58;11.40;;;7.75;;
24373;SDS011;12498;50.880;12.096;2023-05-14T07:43:24;12.50;;;8.40;;
24373;SDS011;12498;50.880;12.096;2023-05-14T07:45:50;15.32;;;8.05;;
24373;SDS011;12498;50.880;12.096;2023-05-14T07:48:17;8.95;;;7.38;;
24373;SDS011;12498;50.880;12.096;2023-05-14T07:50:43;10.25;;;8.10;;
24373;SDS011;12498;50.880;12.096;2023-05-14T07:53:09;15.02;;;8.18;;
24373;SDS011;12498;50.880;12.096;2023-05-14T07:55:35;8.57;;;7.25;;
24373;SDS011;12498;50.880;12.096;2023-05-14T07:58:01;12.10;;;7.60;;
24373;SDS011;12498;50.880;12.096;2023-05-14T08:00:27;10.18;;;7.70;;
24373;SDS011;12498;50.880;12.096;2023-05-14T08:02:54;11.68;;;8.65;;
24373;SDS011;12498;50.880;12.096;2023-05-14T08:05:20;12.35;;;7.53;;
24373;SDS011;12498;50.880;12.096;2023-05-14T08:07:46;9.52;;;7.50;;
24373;SDS011;12498;50.880;12.096;2023-05-14T08:10:12;10.13;;;6.95;;
24373;SDS011;12498;50.880;12.096;2023-05-14T08:12:38;11.23;;;8.15;;
24373;SDS011;12498;50.880;12.096;2023-05-14T08:15:05;9.20;;;6.85;;
24373;SDS011;12498;50.880;12.096;2023-05-14T08:17:31;9.00;;;7.00;;
24373;SDS011;12498;50.880;12.096;2023-05-14T08:19:57;8.95;;;6.80;;
24373;SDS011;12498;50.880;12.096;2023-05-14T08:22:23;6.85;;;6.03;;
24373;SDS011;12498;50.880;12.096;2023-05-14T08:24:49;7.22;;;6.03;;
24373;SDS011;12498;50.880;12.096;2023-05-14T08:27:15;7.88;;;5.90;;
24373;SDS011;12498;50.880;12.096;2023-05-14T08:29:41;10.07;;;5.85;;
24373;SDS011;12498;50.880;12.096;2023-05-14T08:32:07;8.23;;;6.07;;
24373;SDS011;12498;50.880;12.096;2023-05-14T08:34:33;8.05;;;6.60;;
24373;SDS011;12498;50.880;12.096;2023-05-14T08:37:00;6.47;;;5.78;;
24373;SDS011;12498;50.880;12.096;2023-05-14T08:39:26;10.45;;;7.15;;
24373;SDS011;12498;50.880;12.096;2023-05-14T08:41:52;10.73;;;7.47;;
24373;SDS011;12498;50.880;12.096;2023-05-14T08:44:18;8.02;;;6.40;;
24373;SDS011;12498;50.880;12.096;2023-05-14T08:46:45;16.02;;;10.90;;
24373;SDS011;12498;50.880;12.096;2023-05-14T08:51:56;10.77;;;6.60;;
24373;SDS011;12498;50.880;12.096;2023-05-14T08:54:22;7.97;;;5.50;;
24373;SDS011;12498;50.880;12.096;2023-05-14T08:56:50;9.55;;;6.40;;
24373;SDS011;12498;50.880;12.096;2023-05-14T08:59:16;7.43;;;5.70;;
24373;SDS011;12498;50.880;12.096;2023-05-14T09:01:43;7.30;;;5.55;;
24373;SDS011;12498;50.880;12.096;2023-05-14T09:04:11;7.90;;;5.72;;
24373;SDS011;12498;50.880;12.096;2023-05-14T09:06:37;6.60;;;5.10;;
24373;SDS011;12498;50.880;12.096;2023-05-14T09:09:04;8.90;;;5.30;;
24373;SDS011;12498;50.880;12.096;2023-05-14T09:11:30;7.80;;;5.28;;
24373;SDS011;12498;50.880;12.096;2023-05-14T09:13:57;5.63;;;4.90;;
24373;SDS011;12498;50.880;12.096;2023-05-14T09:16:23;6.75;;;5.05;;
24373;SDS011;12498;50.880;12.096;2023-05-14T09:18:50;10.57;;;5.43;;
24373;SDS011;12498;50.880;12.096;2023-05-14T09:21:16;7.45;;;5.35;;
24373;SDS011;12498;50.880;12.096;2023-05-14T09:23:43;6.55;;;5.28;;
24373;SDS011;12498;50.880;12.096;2023-05-14T09:26:09;6.30;;;5.18;;
24373;SDS011;12498;50.880;12.096;2023-05-14T09:28:39;8.85;;;5.53;;
24373;SDS011;12498;50.880;12.096;2023-05-14T09:31:06;11.15;;;5.30;;
24373;SDS011;12498;50.880;12.096;2023-05-14T09:33:32;6.25;;;4.90;;
24373;SDS011;12498;50.880;12.096;2023-05-14T09:35:58;6.97;;;4.70;;
24373;SDS011;12498;50.880;12.096;2023-05-14T09:40:53;9.82;;;5.68;;
24373;SDS011;12498;50.880;12.096;2023-05-14T09:43:20;8.98;;;4.72;;
24373;SDS011;12498;50.880;12.096;2023-05-14T09:45:46;5.63;;;4.10;;
24373;SDS011;12498;50.880;12.096;2023-05-14T09:48:12;5.78;;;4.30;;
24373;SDS011;12498;50.880;12.096;2023-05-14T09:50:41;7.03;;;4.70;;
24373;SDS011;12498;50.880;12.096;2023-05-14T09:53:07;6.15;;;4.10;;
24373;SDS011;12498;50.880;12.096;2023-05-14T09:55:34;9.50;;;5.10;;
24373;SDS011;12498;50.880;12.096;2023-05-14T09:58:01;5.53;;;4.00;;
24373;SDS011;12498;50.880;12.096;2023-05-14T10:00:28;6.47;;;4.03;;
24373;SDS011;12498;50.880;12.096;2023-05-14T10:02:53;5.50;;;4.40;;
24373;SDS011;12498;50.880;12.096;2023-05-14T10:05:21;4.82;;;3.85;;
24373;SDS011;12498;50.880;12.096;2023-05-14T10:07:48;7.60;;;4.43;;
24373;SDS011;12498;50.880;12.096;2023-05-14T10:10:15;5.00;;;4.03;;
24373;SDS011;12498;50.880;12.096;2023-05-14T10:12:43;4.60;;;4.00;;
24373;SDS011;12498;50.880;12.096;2023-05-14T10:15:20;5.93;;;4.03;;
24373;SDS011;12498;50.880;12.096;2023-05-14T10:17:47;4.55;;;4.07;;
24373;SDS011;12498;50.880;12.096;2023-05-14T10:20:14;7.32;;;4.20;;
24373;SDS011;12498;50.880;12.096;2023-05-14T10:22:41;5.50;;;4.38;;
24373;SDS011;12498;50.880;12.096;2023-05-14T10:25:07;7.10;;;6.05;;
24373;SDS011;12498;50.880;12.096;2023-05-14T10:27:34;8.07;;;5.32;;
24373;SDS011;12498;50.880;12.096;2023-05-14T10:30:03;4.95;;;4.43;;
24373;SDS011;12498;50.880;12.096;2023-05-14T10:32:30;6.75;;;4.88;;
24373;SDS011;12498;50.880;12.096;2023-05-14T10:34:57;5.35;;;4.80;;
24373;SDS011;12498;50.880;12.096;2023-05-14T10:37:26;5.50;;;4.38;;
24373;SDS011;12498;50.880;12.096;2023-05-14T10:42:22;6.68;;;4.43;;
24373;SDS011;12498;50.880;12.096;2023-05-14T10:47:18;5.78;;;4.47;;
24373;SDS011;12498;50.880;12.096;2023-05-14T10:49:45;6.32;;;4.45;;
24373;SDS011;12498;50.880;12.096;2023-05-14T10:52:17;12.75;;;5.25;;
24373;SDS011;12498;50.880;12.096;2023-05-14T10:54:53;7.05;;;4.40;;
24373;SDS011;12498;50.880;12.096;2023-05-14T10:57:20;4.93;;;4.05;;
24373;SDS011;12498;50.880;12.096;2023-05-14T10:59:47;5.97;;;4.47;;
24373;SDS011;12498;50.880;12.096;2023-05-14T11:02:26;6.15;;;4.32;;
24373;SDS011;12498;50.880;12.096;2023-05-14T11:07:23;6.82;;;4.00;;
24373;SDS011;12498;50.880;12.096;2023-05-14T11:09:49;5.40;;;4.07;;
24373;SDS011;12498;50.880;12.096;2023-05-14T11:12:16;5.53;;;3.60;;
24373;SDS011;12498;50.880;12.096;2023-05-14T11:14:43;5.82;;;3.97;;
24373;SDS011;12498;50.880;12.096;2023-05-14T11:17:10;4.65;;;4.10;;
24373;SDS011;12498;50.880;12.096;2023-05-14T11:19:36;5.05;;;4.13;;
24373;SDS011;12498;50.880;12.096;2023-05-14T11:22:02;6.07;;;5.18;;
24373;SDS011;12498;50.880;12.096;2023-05-14T11:24:28;11.65;;;5.95;;
24373;SDS011;12498;50.880;12.096;2023-05-14T11:26:54;4.25;;;3.35;;
24373;SDS011;12498;50.880;12.096;2023-05-14T11:29:20;4.38;;;3.47;;
24373;SDS011;12498;50.880;12.096;2023-05-14T11:31:46;3.88;;;3.40;;
24373;SDS011;12498;50.880;12.096;2023-05-14T11:34:12;4.53;;;3.00;;
24373;SDS011;12498;50.880;12.096;2023-05-14T11:36:38;6.03;;;3.28;;
24373;SDS011;12498;50.880;12.096;2023-05-14T11:39:06;2.63;;;2.42;;
24373;SDS011;12498;50.880;12.096;2023-05-14T11:41:32;3.78;;;3.00;;
24373;SDS011;12498;50.880;12.096;2023-05-14T11:43:58;4.32;;;2.95;;
24373;SDS011;12498;50.880;12.096;2023-05-14T11:46:24;3.22;;;2.90;;
24373;SDS011;12498;50.880;12.096;2023-05-14T11:48:50;3.80;;;2.90;;
24373;SDS011;12498;50.880;12.096;2023-05-14T11:51:16;3.72;;;2.95;;
24373;SDS011;12498;50.880;12.096;2023-05-14T11:53:43;2.83;;;2.55;;
24373;SDS011;12498;50.880;12.096;2023-05-14T11:56:10;3.45;;;2.40;;
24373;SDS011;12498;50.880;12.096;2023-05-14T11:58:36;4.43;;;2.83;;
24373;SDS011;12498;50.880;12.096;2023-05-14T12:01:02;3.05;;;2.72;;
24373;SDS011;12498;50.880;12.096;2023-05-14T12:03:29;3.05;;;2.63;;
24373;SDS011;12498;50.880;12.096;2023-05-14T12:05:57;9.50;;;3.88;;
24373;SDS011;12498;50.880;12.096;2023-05-14T12:08:26;8.93;;;5.55;;
24373;SDS011;12498;50.880;12.096;2023-05-14T12:10:53;4.05;;;2.95;;
24373;SDS011;12498;50.880;12.096;2023-05-14T12:13:19;3.38;;;2.80;;
24373;SDS011;12498;50.880;12.096;2023-05-14T12:15:45;5.32;;;2.80;;
24373;SDS011;12498;50.880;12.096;2023-05-14T12:18:12;4.60;;;2.80;;
24373;SDS011;12498;50.880;12.096;2023-05-14T12:20:38;3.50;;;2.28;;
24373;SDS011;12498;50.880;12.096;2023-05-14T12:23:08;2.50;;;2.30;;
24373;SDS011;12498;50.880;12.096;2023-05-14T12:25:34;3.63;;;2.33;;
24373;SDS011;12498;50.880;12.096;2023-05-14T12:28:12;3.88;;;2.20;;
24373;SDS011;12498;50.880;12.096;2023-05-14T12:30:38;4.22;;;2.85;;
24373;SDS011;12498;50.880;12.096;2023-05-14T12:33:05;3.00;;;2.65;;
24373;SDS011;12498;50.880;12.096;2023-05-14T12:35:31;3.13;;;2.53;;
24373;SDS011;12498;50.880;12.096;2023-05-14T12:37:57;4.10;;;2.40;;
24373;SDS011;12498;50.880;12.096;2023-05-14T12:40:23;3.15;;;2.58;;
24373;SDS011;12498;50.880;12.096;2023-05-14T12:42:49;17.10;;;12.73;;
24373;SDS011;12498;50.880;12.096;2023-05-14T12:45:15;5.38;;;3.40;;
24373;SDS011;12498;50.880;12.096;2023-05-14T12:47:41;5.40;;;3.40;;
24373;SDS011;12498;50.880;12.096;2023-05-14T12:50:07;5.90;;;3.03;;
24373;SDS011;12498;50.880;12.096;2023-05-14T12:52:37;6.00;;;3.88;;
24373;SDS011;12498;50.880;12.096;2023-05-14T12:55:03;3.83;;;3.22;;
24373;SDS011;12498;50.880;12.096;2023-05-14T12:57:29;7.60;;;3.70;;
24373;SDS011;12498;50.880;12.096;2023-05-14T12:59:55;10.15;;;3.65;;
24373;SDS011;12498;50.880;12.096;2023-05-14T13:04:50;10.95;;;5.43;;
24373;SDS011;12498;50.880;12.096;2023-05-14T13:07:16;8.25;;;4.50;;
24373;SDS011;12498;50.880;12.096;2023-05-14T13:09:42;9.70;;;4.97;;
24373;SDS011;12498;50.880;12.096;2023-05-14T13:12:08;4.65;;;3.85;;
24373;SDS011;12498;50.880;12.096;2023-05-14T13:14:34;14.40;;;4.93;;
24373;SDS011;12498;50.880;12.096;2023-05-14T13:17:00;14.32;;;4.80;;
24373;SDS011;12498;50.880;12.096;2023-05-14T13:19:26;9.13;;;4.47;;
24373;SDS011;12498;50.880;12.096;2023-05-14T13:21:52;5.78;;;3.70;;
24373;SDS011;12498;50.880;12.096;2023-05-14T13:24:18;5.90;;;3.90;;
24373;SDS011;12498;50.880;12.096;2023-05-14T13:26:44;10.25;;;3.80;;
24373;SDS011;12498;50.880;12.096;2023-05-14T13:29:10;8.32;;;4.20;;
24373;SDS011;12498;50.880;12.096;2023-05-14T13:31:36;8.07;;;4.28;;
24373;SDS011;12498;50.880;12.096;2023-05-14T13:34:02;4.93;;;3.50;;
24373;SDS011;12498;50.880;12.096;2023-05-14T13:36:28;4.97;;;4.13;;
24373;SDS011;12498;50.880;12.096;2023-05-14T13:38:56;6.82;;;3.67;;
24373;SDS011;12498;50.880;12.096;2023-05-14T13:41:22;4.95;;;4.00;;
24373;SDS011;12498;50.880;12.096;2023-05-14T13:43:48;5.55;;;3.72;;
24373;SDS011;12498;50.880;12.096;2023-05-14T13:46:14;6.38;;;3.80;;
24373;SDS011;12498;50.880;12.096;2023-05-14T13:48:40;5.63;;;4.10;;
24373;SDS011;12498;50.880;12.096;2023-05-14T13:51:08;6.55;;;4.03;;
24373;SDS011;12498;50.880;12.096;2023-05-14T13:53:34;10.18;;;3.80;;
24373;SDS011;12498;50.880;12.096;2023-05-14T13:56:00;5.68;;;3.50;;
24373;SDS011;12498;50.880;12.096;2023-05-14T13:58:27;6.07;;;4.20;;
24373;SDS011;12498;50.880;12.096;2023-05-14T14:00:53;4.78;;;3.90;;
24373;SDS011;12498;50.880;12.096;2023-05-14T14:03:19;4.80;;;3.60;;
24373;SDS011;12498;50.880;12.096;2023-05-14T14:05:45;5.20;;;3.65;;
24373;SDS011;12498;50.880;12.096;2023-05-14T14:08:11;15.15;;;7.25;;
24373;SDS011;12498;50.880;12.096;2023-05-14T14:10:37;6.65;;;4.88;;
24373;SDS011;12498;50.880;12.096;2023-05-14T14:13:06;4.43;;;3.58;;
24373;SDS011;12498;50.880;12.096;2023-05-14T14:15:32;5.47;;;3.67;;
24373;SDS011;12498;50.880;12.096;2023-05-14T14:17:58;3.85;;;3.40;;
24373;SDS011;12498;50.880;12.096;2023-05-14T14:20:24;7.82;;;3.55;;
24373;SDS011;12498;50.880;12.096;2023-05-14T14:22:50;5.90;;;3.55;;
24373;SDS011;12498;50.880;12.096;2023-05-14T14:25:16;7.38;;;4.00;;
24373;SDS011;12498;50.880;12.096;2023-05-14T14:27:42;3.90;;;3.50;;
24373;SDS011;12498;50.880;12.096;2023-05-14T14:30:09;8.80;;;3.70;;
24373;SDS011;12498;50.880;12.096;2023-05-14T14:32:48;6.65;;;4.35;;
24373;SDS011;12498;50.880;12.096;2023-05-14T14:35:16;4.50;;;3.60;;
24373;SDS011;12498;50.880;12.096;2023-05-14T14:37:43;5.40;;;3.58;;
24373;SDS011;12498;50.880;12.096;2023-05-14T14:40:13;7.10;;;3.63;;